Time;durP1;ratioP1;P1;durP2;ratioP2;P2;SDS_P1;SDS_P2;PMS_P1;PMS_P2;Temp;Humidity;BMP_temperature;BMP_pressure;BME280_temperature;BME280_humidity;BME280_pressure;Samples;Min_cycle;Max_cycle;Signal;HPM_P1;HPM_P2
2023/03/14 00:00:34;;;;;;;4.10;0.50;;;10.80;1.00;;;;;;5031336;28;20403;-56
2023/03/14 00:03:00;;;;;;;4.00;0.40;;;10.80;1.00;;;;;;5031044;28;20487;-56
2023/03/14 00:05:26;;;;;;;5.10;0.50;;;10.80;1.00;;;;;;5031451;28;20474;-56
2023/03/14 00:07:51;;;;;;;3.83;0.50;;;10.80;1.00;;;;;;5030218;28;20423;-56
2023/03/14 00:10:17;;;;;;;4.03;0.40;;;10.80;1.00;;;;;;5031507;28;20407;-56
2023/03/14 00:12:44;;;;;;;3.70;0.50;;;10.80;1.00;;;;;;5030622;28;20387;-57
2023/03/14 00:15:11;;;;;;;3.80;0.30;;;10.80;1.00;;;;;;5031501;28;20378;-56
2023/03/14 00:17:37;;;;;;;3.60;0.40;;;10.80;1.00;;;;;;5031565;28;20593;-60
2023/03/14 00:20:08;;;;;;;4.60;0.50;;;10.80;1.00;;;;;;5030996;28;20895;-57
2023/03/14 00:22:38;;;;;;;3.72;0.50;;;10.90;1.00;;;;;;5031046;28;20414;-56
2023/03/14 00:25:06;;;;;;;3.60;0.40;;;10.90;1.00;;;;;;5030596;28;20398;-57
2023/03/14 00:27:32;;;;;;;3.50;0.30;;;10.90;1.00;;;;;;5030755;28;20501;-57
2023/03/14 00:29:58;;;;;;;4.40;0.40;;;10.90;1.00;;;;;;5030209;28;20429;-56
2023/03/14 00:32:23;;;;;;;4.10;0.40;;;10.80;1.00;;;;;;5031288;28;20445;-56
2023/03/14 00:34:49;;;;;;;4.03;0.60;;;10.80;1.00;;;;;;5030032;28;20765;-57
2023/03/14 00:37:15;;;;;;;3.95;0.50;;;10.80;1.00;;;;;;5030695;28;20469;-57
2023/03/14 00:39:42;;;;;;;3.70;0.50;;;10.90;1.00;;;;;;5030029;28;20433;-57
2023/03/14 00:42:08;;;;;;;4.70;0.50;;;10.80;1.00;;;;;;5031173;28;20398;-57
2023/03/14 00:44:33;;;;;;;4.20;0.70;;;10.90;1.00;;;;;;5030546;28;20383;-57
2023/03/14 00:46:59;;;;;;;3.90;0.30;;;10.80;1.00;;;;;;5029946;28;20418;-57
2023/03/14 00:49:25;;;;;;;3.65;0.45;;;10.90;1.00;;;;;;5030705;28;20399;-57
2023/03/14 00:51:51;;;;;;;5.30;0.50;;;11.00;1.00;;;;;;5029709;28;20713;-57
2023/03/14 00:54:18;;;;;;;3.70;0.50;;;11.10;1.00;;;;;;5030239;28;20406;-57
2023/03/14 00:56:44;;;;;;;4.40;0.50;;;11.00;1.00;;;;;;5029920;28;20391;-57
2023/03/14 00:59:09;;;;;;;3.70;0.60;;;11.10;1.00;;;;;;5030624;28;20498;-57
2023/03/14 01:01:35;;;;;;;3.73;0.50;;;11.00;1.00;;;;;;5030166;28;20807;-57
2023/03/14 01:04:01;;;;;;;3.70;0.50;;;11.10;1.00;;;;;;5029690;28;20378;-57
2023/03/14 01:06:29;;;;;;;5.10;0.50;;;11.00;1.00;;;;;;5030194;28;20763;-57
2023/03/14 01:08:56;;;;;;;3.80;0.52;;;11.00;1.00;;;;;;5029733;28;20403;-57
2023/03/14 01:11:24;;;;;;;3.60;0.38;;;11.00;1.00;;;;;;5030344;28;20398;-57
2023/03/14 01:13:52;;;;;;;3.70;0.47;;;11.00;1.00;;;;;;5029538;28;20387;-56
2023/03/14 01:16:19;;;;;;;4.15;0.60;;;11.10;1.00;;;;;;5030320;28;20391;-56
2023/03/14 01:18:46;;;;;;;4.30;0.50;;;11.10;99.90;;;;;;5029278;28;20437;-57
2023/03/14 01:21:22;;;;;;;4.78;0.50;;;11.20;99.90;;;;;;5029967;28;20470;-55
2023/03/14 01:23:48;;;;;;;3.70;0.50;;;11.10;99.90;;;;;;5029439;28;20379;-55
2023/03/14 01:26:18;;;;;;;4.00;0.40;;;11.10;99.90;;;;;;5030090;28;20390;-56
2023/03/14 01:28:45;;;;;;;3.78;0.55;;;11.30;99.90;;;;;;5029323;28;20419;-56
2023/03/14 01:31:12;;;;;;;3.90;0.40;;;11.60;99.90;;;;;;5029951;28;20398;-56
2023/03/14 01:33:38;;;;;;;3.90;0.40;;;11.20;99.90;;;;;;5029961;28;20452;-61
2023/03/14 01:36:05;;;;;;;3.90;0.50;;;11.10;99.90;;;;;;5029669;28;20383;-57
2023/03/14 01:38:32;;;;;;;3.92;0.52;;;11.10;1.00;;;;;;5029864;28;20429;-56
2023/03/14 01:40:58;;;;;;;3.60;0.40;;;11.10;99.90;;;;;;5029030;28;20446;-56
2023/03/14 01:43:24;;;;;;;3.60;0.40;;;11.10;99.90;;;;;;5034103;28;20405;-56
2023/03/14 01:46:05;;;;;;;4.00;0.50;;;11.10;99.90;;;;;;5049110;28;20393;-57
2023/03/14 01:48:56;;;;;;;3.60;0.40;;;11.10;99.90;;;;;;5049523;28;20390;-56
2023/03/14 01:51:45;;;;;;;4.03;0.50;;;11.00;99.90;;;;;;5040000;28;20712;-56
2023/03/14 01:54:16;;;;;;;3.60;0.30;;;11.00;99.90;;;;;;5049244;28;20850;-56
2023/03/14 01:56:46;;;;;;;3.70;0.40;;;11.00;99.90;;;;;;5048947;28;20859;-57
2023/03/14 01:59:12;;;;;;;4.47;0.47;;;10.90;99.90;;;;;;5049466;28;20451;-56
2023/03/14 02:01:41;;;;;;;3.50;0.30;;;10.90;99.90;;;;;;5049624;28;20472;-58
2023/03/14 02:04:08;;;;;;;4.20;0.40;;;10.90;99.90;;;;;;5049484;28;20389;-56
2023/03/14 02:06:42;;;;;;;4.10;0.50;;;10.80;99.90;;;;;;5049534;28;20398;-56
2023/03/14 02:09:07;;;;;;;4.10;0.40;;;10.80;99.90;;;;;;5049563;28;20408;-55
2023/03/14 02:11:33;;;;;;;4.60;0.30;;;10.60;99.90;;;;;;5049470;28;20377;-56
2023/03/14 02:14:01;;;;;;;3.70;0.40;;;10.70;99.90;;;;;;5048591;28;20466;-55
2023/03/14 02:16:26;;;;;;;3.72;0.43;;;10.80;99.90;;;;;;5049539;28;20389;-55
2023/03/14 02:18:53;;;;;;;3.50;0.30;;;10.70;99.90;;;;;;5048647;28;20716;-55
2023/03/14 02:21:35;;;;;;;4.70;0.40;;;10.70;45.60;;;;;;5049676;28;20400;-55
2023/03/14 02:24:17;;;;;;;3.90;0.50;;;10.70;68.70;;;;;;5030834;28;20393;-56
2023/03/14 02:27:04;;;;;;;3.70;0.47;;;10.70;1.00;;;;;;5048578;28;20501;-56
2023/03/14 02:29:32;;;;;;;3.80;0.40;;;10.60;1.00;;;;;;5049125;28;20414;-56
2023/03/14 02:31:58;;;;;;;3.60;0.40;;;10.60;1.00;;;;;;5048594;28;20373;-57
2023/03/14 02:34:24;;;;;;;4.00;0.40;;;10.60;1.00;;;;;;5049579;28;20365;-56
2023/03/14 02:36:50;;;;;;;4.80;0.50;;;10.60;99.90;;;;;;5048631;28;20427;-56
2023/03/14 02:39:32;;;;;;;4.00;0.50;;;10.60;99.90;;;;;;5049320;28;20393;-56
2023/03/14 02:41:58;;;;;;;3.80;0.40;;;10.60;99.90;;;;;;5048805;28;20907;-56
2023/03/14 02:44:23;;;;;;;6.43;0.40;;;11.40;1.00;;;;;;5049088;28;20472;-56
2023/03/14 02:46:49;;;;;;;3.77;0.30;;;10.50;1.00;;;;;;5048441;28;20377;-56
2023/03/14 02:49:16;;;;;;;4.10;0.47;;;10.50;1.00;;;;;;5051508;28;20428;-56
2023/03/14 02:51:44;;;;;;;4.50;0.40;;;10.50;1.00;;;;;;5052127;28;20865;-56
2023/03/14 02:54:10;;;;;;;4.10;0.40;;;10.50;1.00;;;;;;5052907;28;20443;-56
2023/03/14 02:56:37;;;;;;;4.10;0.40;;;10.50;1.00;;;;;;5052834;28;20381;-56
2023/03/14 02:59:04;;;;;;;3.70;0.40;;;10.50;1.00;;;;;;5051664;28;20474;-55
2023/03/14 03:01:29;;;;;;;4.10;0.40;;;10.50;1.00;;;;;;5052580;28;20851;-55
2023/03/14 03:03:55;;;;;;;3.90;0.67;;;10.40;1.00;;;;;;5052094;28;20481;-56
2023/03/14 03:06:22;;;;;;;3.60;0.30;;;10.40;1.00;;;;;;5052247;28;20742;-56
2023/03/14 03:08:47;;;;;;;5.00;0.40;;;10.90;1.00;;;;;;5051558;28;20462;-56
2023/03/14 03:11:13;;;;;;;3.90;0.50;;;10.40;1.00;;;;;;5053434;28;20975;-56
2023/03/14 03:13:39;;;;;;;3.90;0.40;;;10.40;1.00;;;;;;5052297;28;20374;-60
2023/03/14 03:16:05;;;;;;;4.70;0.70;;;10.40;1.00;;;;;;5052345;28;20716;-56
2023/03/14 03:18:30;;;;;;;5.50;0.70;;;10.40;1.00;;;;;;5052514;28;20843;-56
2023/03/14 03:21:00;;;;;;;4.00;0.40;;;10.50;1.00;;;;;;5051373;28;20382;-56
2023/03/14 03:23:27;;;;;;;4.40;0.70;;;10.50;99.90;;;;;;5052147;28;20870;-56
2023/03/14 03:25:53;;;;;;;4.82;0.60;;;10.50;99.90;;;;;;5051891;28;20400;-56
2023/03/14 03:28:19;;;;;;;4.30;0.50;;;10.50;99.90;;;;;;5051577;28;20405;-56
2023/03/14 03:30:44;;;;;;;4.70;0.40;;;10.50;4.80;;;;;;5050782;28;20427;-56
2023/03/14 03:33:10;;;;;;;4.30;0.50;;;10.50;99.90;;;;;;5051530;28;20874;-56
2023/03/14 03:35:49;;;;;;;4.93;0.63;;;10.40;1.00;;;;;;5052360;28;20878;-56
2023/03/14 03:38:15;;;;;;;3.97;0.40;;;10.40;38.70;;;;;;5051976;28;20395;-55
2023/03/14 03:40:41;;;;;;;4.68;0.77;;;10.30;1.00;;;;;;5051110;28;20470;-56
2023/03/14 03:43:07;;;;;;;4.93;0.50;;;10.40;99.90;;;;;;5051626;28;20505;-56
2023/03/14 03:45:32;;;;;;;4.80;0.50;;;10.40;1.00;;;;;;5051530;28;20369;-56
2023/03/14 03:47:58;;;;;;;3.90;0.50;;;10.40;99.90;;;;;;5050804;28;20395;-56
2023/03/14 03:50:24;;;;;;;5.00;0.40;;;10.40;9.10;;;;;;5051708;28;20879;-55
2023/03/14 03:52:49;;;;;;;6.30;0.50;;;10.30;99.90;;;;;;5050896;28;20385;-55
2023/03/14 03:55:15;;;;;;;3.80;0.40;;;10.30;99.90;;;;;;5051346;28;20378;-55
2023/03/14 03:57:40;;;;;;;3.80;0.40;;;10.30;99.90;;;;;;5050843;28;20473;-56
2023/03/14 04:00:08;;;;;;;4.07;0.53;;;10.20;99.90;;;;;;5050954;28;20443;-55
2023/03/14 04:02:34;;;;;;;4.93;0.70;;;10.20;99.90;;;;;;5051466;28;20768;-56
2023/03/14 04:05:00;;;;;;;5.80;0.50;;;10.30;1.00;;;;;;5049777;28;20392;-56
2023/03/14 04:07:25;;;;;;;4.40;0.60;;;10.30;99.90;;;;;;5039691;28;20395;-56
2023/03/14 04:09:51;;;;;;;4.55;0.60;;;10.30;1.00;;;;;;5033063;28;20428;-56
2023/03/14 04:12:16;;;;;;;4.30;0.40;;;10.50;1.00;;;;;;5046721;28;20413;-56
2023/03/14 04:14:42;;;;;;;5.80;0.40;;;10.40;99.90;;;;;;5050424;28;20443;-57
2023/03/14 04:17:08;;;;;;;4.10;0.60;;;10.30;99.90;;;;;;5051177;28;20808;-56
2023/03/14 04:19:33;;;;;;;4.40;0.52;;;10.30;99.90;;;;;;5050892;28;20381;-56
2023/03/14 04:21:59;;;;;;;6.97;0.70;;;10.30;1.00;;;;;;5050398;28;21076;-56
2023/03/14 04:24:26;;;;;;;4.32;0.60;;;10.40;1.00;;;;;;5051493;28;20377;-56
2023/03/14 04:26:52;;;;;;;4.90;0.60;;;10.30;1.00;;;;;;5050083;28;20435;-55
2023/03/14 04:29:18;;;;;;;4.90;0.70;;;10.40;99.90;;;;;;5051044;28;20413;-56
2023/03/14 04:31:43;;;;;;;7.00;0.80;;;10.40;99.90;;;;;;5050455;28;20404;-56
2023/03/14 04:34:09;;;;;;;5.13;0.50;;;10.30;99.90;;;;;;5050857;28;20377;-56
2023/03/14 04:36:34;;;;;;;7.32;0.50;;;10.30;1.00;;;;;;5050817;28;20373;-56
2023/03/14 04:39:01;;;;;;;4.70;0.50;;;10.40;14.60;;;;;;5050169;28;20440;-56
2023/03/14 04:41:27;;;;;;;4.47;0.70;;;10.30;1.00;;;;;;5032371;28;20871;-56
2023/03/14 04:43:52;;;;;;;4.40;0.70;;;10.30;1.00;;;;;;5049698;28;20374;-55
2023/03/14 04:46:18;;;;;;;4.60;0.50;;;10.30;1.00;;;;;;5049475;28;20480;-56
2023/03/14 04:48:44;;;;;;;3.90;0.30;;;10.20;1.00;;;;;;5049612;28;20381;-56
2023/03/14 04:51:09;;;;;;;4.13;0.60;;;10.20;99.90;;;;;;5050320;28;20373;-56
2023/03/14 04:53:36;;;;;;;5.00;0.73;;;10.20;1.00;;;;;;5050657;28;20847;-56
2023/03/14 04:56:02;;;;;;;5.30;0.70;;;10.30;99.90;;;;;;5036322;28;20438;-57
2023/03/14 04:58:28;;;;;;;5.43;0.50;;;10.40;99.90;;;;;;5030242;28;20855;-57
2023/03/14 05:00:54;;;;;;;6.40;0.80;;;10.20;99.90;;;;;;5029858;28;20463;-56
2023/03/14 05:03:19;;;;;;;7.30;0.80;;;10.10;99.90;;;;;;5048883;28;20855;-56
2023/03/14 05:05:45;;;;;;;7.40;0.90;;;10.20;99.90;;;;;;5049769;28;20377;-60
2023/03/14 05:08:11;;;;;;;6.00;0.60;;;10.10;99.90;;;;;;5053088;28;20424;-56
2023/03/14 05:10:37;;;;;;;4.50;0.65;;;10.10;99.90;;;;;;5059993;28;20514;-56
2023/03/14 05:13:03;;;;;;;5.40;0.65;;;10.10;99.90;;;;;;5058046;28;20456;-56
2023/03/14 05:15:29;;;;;;;5.47;0.70;;;10.10;99.90;;;;;;5059689;28;20383;-56
2023/03/14 05:17:54;;;;;;;5.00;0.83;;;10.00;99.90;;;;;;5059498;28;20381;-55
2023/03/14 05:20:21;;;;;;;4.93;0.80;;;9.90;1.00;;;;;;5058054;28;20412;-56
2023/03/14 05:22:47;;;;;;;5.13;0.82;;;10.00;1.00;;;;;;5055239;28;20391;-56
2023/03/14 05:25:12;;;;;;;5.35;0.60;;;10.00;1.00;;;;;;5059134;28;20372;-56
2023/03/14 05:27:38;;;;;;;4.57;0.60;;;9.90;1.00;;;;;;5059763;28;20411;-60
2023/03/14 05:30:05;;;;;;;6.90;0.70;;;9.90;1.00;;;;;;5056016;28;20439;-56
2023/03/14 05:32:33;;;;;;;7.38;0.77;;;9.80;1.00;;;;;;5060663;28;21496;-56
2023/03/14 05:34:59;;;;;;;4.80;0.50;;;9.80;1.00;;;;;;5057578;28;20461;-57
2023/03/14 05:37:26;;;;;;;4.70;0.85;;;9.80;13.30;;;;;;5056221;28;20859;-55
2023/03/14 05:39:52;;;;;;;4.63;0.40;;;9.80;1.00;;;;;;5037073;28;21216;-56
2023/03/14 05:42:18;;;;;;;6.30;0.50;;;9.80;1.00;;;;;;5032095;28;20383;-57
2023/03/14 05:44:44;;;;;;;6.20;0.60;;;9.90;1.00;;;;;;5049194;28;20370;-60
2023/03/14 05:47:09;;;;;;;4.90;0.70;;;10.00;1.00;;;;;;5049153;28;20390;-56
2023/03/14 05:49:35;;;;;;;7.43;0.53;;;10.00;99.90;;;;;;5048789;28;20409;-57
2023/03/14 05:52:00;;;;;;;8.18;0.90;;;10.10;99.90;;;;;;5029022;28;20409;-57
2023/03/14 05:54:26;;;;;;;4.50;0.60;;;10.20;99.90;;;;;;5046016;28;20472;-57
2023/03/14 05:56:52;;;;;;;4.97;0.60;;;10.30;99.90;;;;;;5048427;28;20381;-57
2023/03/14 05:59:17;;;;;;;5.40;0.40;;;10.40;99.90;;;;;;5049275;28;20464;-58
2023/03/14 06:01:43;;;;;;;4.80;0.60;;;10.30;99.90;;;;;;5048835;28;20476;-62
2023/03/14 06:04:09;;;;;;;4.30;0.50;;;10.40;51.40;;;;;;5049463;28;20382;-58
2023/03/14 06:06:34;;;;;;;5.03;0.60;;;10.50;1.00;;;;;;5049321;28;20374;-59
2023/03/14 06:09:00;;;;;;;4.80;0.60;;;10.50;1.00;;;;;;5048312;28;20470;-57
2023/03/14 06:11:25;;;;;;;5.07;0.70;;;10.40;1.00;;;;;;5049279;28;20397;-59
2023/03/14 06:13:51;;;;;;;6.30;0.60;;;10.40;1.00;;;;;;5046747;28;20874;-55
2023/03/14 06:16:17;;;;;;;4.00;0.60;;;10.40;1.00;;;;;;5050427;28;20402;-54
2023/03/14 06:18:42;;;;;;;6.70;0.85;;;10.40;1.00;;;;;;5057958;28;20509;-63
2023/03/14 06:21:08;;;;;;;5.50;0.70;;;10.70;1.00;;;;;;5058903;28;20381;-55
2023/03/14 06:23:34;;;;;;;3.90;0.38;;;10.50;1.00;;;;;;5060890;28;20806;-54
2023/03/14 06:26:00;;;;;;;4.55;0.65;;;10.50;1.00;;;;;;5062442;28;20510;-58
2023/03/14 06:28:26;;;;;;;3.97;0.40;;;10.50;1.00;;;;;;5062627;28;20405;-58
2023/03/14 06:30:51;;;;;;;4.40;0.40;;;10.50;1.00;;;;;;5060500;28;20483;-55
2023/03/14 06:33:17;;;;;;;4.10;0.40;;;10.70;1.00;;;;;;5064757;28;20757;-55
2023/03/14 06:35:43;;;;;;;5.40;0.60;;;10.70;1.00;;;;;;5052698;28;20374;-61
2023/03/14 06:38:08;;;;;;;5.30;0.50;;;10.80;1.00;;;;;;5033529;28;20400;-56
2023/03/14 06:40:34;;;;;;;5.17;0.47;;;11.00;1.00;;;;;;5052664;28;20382;-56
2023/03/14 06:42:59;;;;;;;4.50;0.70;;;11.10;1.00;;;;;;5052250;28;20476;-57
2023/03/14 06:45:26;;;;;;;5.60;0.80;;;11.50;99.90;;;;;;5052832;28;20425;-59
2023/03/14 06:47:51;;;;;;;6.35;0.68;;;11.90;99.90;;;;;;5052308;28;20384;-59
2023/03/14 06:50:17;;;;;;;5.33;0.60;;;12.40;99.90;;;;;;5052535;28;20425;-58
2023/03/14 06:52:47;;;;;;;5.30;0.50;;;13.50;63.70;;;;;;5051769;28;20403;-58
2023/03/14 06:55:13;;;;;;;4.80;0.57;;;14.50;1.00;;;;;;5053076;28;20400;-57
2023/03/14 06:57:39;;;;;;;4.70;0.50;;;15.00;1.00;;;;;;5052510;28;20385;-57
2023/03/14 07:00:05;;;;;;;4.85;0.60;;;15.10;1.00;;;;;;5051906;28;20397;-57
2023/03/14 07:02:31;;;;;;;5.80;0.65;;;15.40;1.00;;;;;;5052215;28;20877;-57
2023/03/14 07:04:56;;;;;;;5.27;0.60;;;15.40;1.00;;;;;;5044406;28;20422;-57
2023/03/14 07:07:22;;;;;;;5.60;0.57;;;14.40;1.00;;;;;;5052745;28;20424;-57
2023/03/14 07:09:49;;;;;;;4.57;0.40;;;13.90;1.00;;;;;;5051644;28;20496;-57
2023/03/14 07:12:14;;;;;;;4.90;0.47;;;14.40;1.00;;;;;;5052394;28;20478;-58
2023/03/14 07:14:40;;;;;;;4.97;0.60;;;15.40;1.00;;;;;;5052232;28;20910;-58
2023/03/14 07:17:05;;;;;;;5.70;0.60;;;15.80;1.00;;;;;;5051505;28;20385;-57
2023/03/14 07:19:31;;;;;;;6.80;0.60;;;16.40;1.00;;;;;;5052021;28;20488;-57
2023/03/14 07:21:57;;;;;;;7.30;0.90;;;16.40;1.00;;;;;;5051177;28;20388;-58
2023/03/14 07:24:22;;;;;;;5.30;0.60;;;16.80;1.00;;;;;;5052443;28;20385;-57
2023/03/14 07:26:48;;;;;;;6.38;0.80;;;16.80;1.00;;;;;;5051145;28;20468;-57
2023/03/14 07:29:13;;;;;;;6.32;1.00;;;16.70;1.00;;;;;;5052731;28;20492;-57
2023/03/14 07:31:39;;;;;;;5.47;0.90;;;17.30;1.00;;;;;;5052389;28;20389;-57
2023/03/14 07:34:05;;;;;;;4.50;0.70;;;18.00;1.00;;;;;;5050826;28;20738;-57
2023/03/14 07:36:32;;;;;;;5.10;1.00;;;18.20;1.00;;;;;;5033817;28;20393;-58
2023/03/14 07:38:57;;;;;;;5.50;1.10;;;18.30;1.00;;;;;;5051134;28;20397;-57
2023/03/14 07:41:23;;;;;;;6.30;1.20;;;17.00;99.90;;;;;;5051618;28;20423;-59
2023/03/14 07:43:49;;;;;;;6.10;1.10;;;17.30;99.90;;;;;;5051370;28;20386;-57
2023/03/14 07:46:15;;;;;;;5.00;1.00;;;17.10;99.90;;;;;;5051770;28;20421;-57
2023/03/14 07:48:41;;;;;;;5.20;1.30;;;17.30;99.90;;;;;;5051312;28;20381;-57
2023/03/14 07:51:07;;;;;;;5.40;0.80;;;17.10;99.90;;;;;;5050922;28;21032;-57
2023/03/14 07:53:32;;;;;;;4.55;0.80;;;16.30;99.90;;;;;;5051520;28;20387;-57
2023/03/14 07:55:58;;;;;;;5.80;1.10;;;16.70;99.90;;;;;;5050696;28;20743;-58
2023/03/14 07:58:24;;;;;;;4.60;1.20;;;17.70;99.90;;;;;;5051746;28;20394;-57
2023/03/14 08:00:50;;;;;;;4.65;1.30;;;18.30;99.90;;;;;;5050811;28;20385;-57
2023/03/14 08:03:16;;;;;;;5.05;1.75;;;18.10;99.90;;;;;;5051621;28;20366;-58
2023/03/14 08:05:42;;;;;;;6.10;2.95;;;19.20;99.90;;;;;;5050871;28;20563;-58
2023/03/14 08:08:07;;;;;;;6.70;5.40;;;19.80;99.90;;;;;;5050657;28;20378;-57
2023/03/14 08:10:33;;;;;;;5.90;5.30;;;19.60;99.90;;;;;;5051048;28;20401;-57
2023/03/14 08:13:01;;;;;;;5.90;4.20;;;18.70;99.90;;;;;;5050968;28;20439;-58
2023/03/14 08:15:28;;;;;;;5.30;3.53;;;18.50;99.90;;;;;;5051075;28;20392;-57
2023/03/14 08:17:54;;;;;;;5.20;3.40;;;18.60;99.90;;;;;;5050405;28;20727;-57
2023/03/14 08:20:22;;;;;;;5.40;3.30;;;18.40;99.90;;;;;;5051310;28;20414;-57
2023/03/14 08:22:49;;;;;;;5.10;2.80;;;18.10;99.90;;;;;;5049840;28;20377;-57
2023/03/14 08:25:15;;;;;;;4.70;1.70;;;17.60;99.90;;;;;;5050577;28;20803;-57
2023/03/14 08:27:41;;;;;;;4.40;1.00;;;16.10;99.90;;;;;;5051088;28;20409;-57
2023/03/14 08:30:09;;;;;;;4.38;0.70;;;15.10;99.90;;;;;;5050398;28;20466;-57
2023/03/14 08:32:35;;;;;;;4.30;0.50;;;15.10;99.90;;;;;;5050544;28;20789;-57
2023/03/14 08:35:01;;;;;;;4.20;0.60;;;15.60;99.90;;;;;;5049807;28;20532;-57
2023/03/14 08:37:28;;;;;;;4.50;0.60;;;16.20;99.90;;;;;;5050531;28;20404;-57
2023/03/14 08:39:54;;;;;;;4.30;0.60;;;16.30;99.90;;;;;;5050045;28;20389;-58
2023/03/14 08:42:19;;;;;;;4.80;0.80;;;16.90;99.90;;;;;;5050333;28;20384;-57
2023/03/14 08:44:45;;;;;;;4.97;0.70;;;16.10;99.90;;;;;;5050151;28;20381;-62
2023/03/14 08:47:11;;;;;;;4.20;0.50;;;16.00;99.90;;;;;;5049861;28;20470;-57
2023/03/14 08:49:36;;;;;;;5.43;0.60;;;15.80;99.90;;;;;;5050732;28;20459;-57
2023/03/14 08:52:04;;;;;;;5.70;0.70;;;15.90;99.90;;;;;;5049921;28;20854;-57
2023/03/14 08:54:30;;;;;;;4.40;0.60;;;15.70;99.90;;;;;;5050694;28;20381;-57
2023/03/14 08:56:55;;;;;;;4.60;0.52;;;14.70;99.90;;;;;;5031992;28;20735;-57
2023/03/14 08:59:21;;;;;;;4.70;0.57;;;14.10;99.90;;;;;;5050421;28;20846;-57
2023/03/14 09:01:47;;;;;;;4.47;0.40;;;13.80;99.90;;;;;;5049755;28;20388;-60
2023/03/14 09:04:13;;;;;;;5.30;0.90;;;13.60;99.90;;;;;;5050173;28;20425;-57
2023/03/14 09:06:39;;;;;;;4.20;0.30;;;13.40;99.90;;;;;;5050168;28;20488;-56
2023/03/14 09:09:05;;;;;;;4.10;0.30;;;13.80;99.90;;;;;;5049066;28;20382;-57
2023/03/14 09:11:31;;;;;;;4.50;0.40;;;13.80;99.90;;;;;;5050211;28;20385;-59
2023/03/14 09:13:57;;;;;;;5.30;0.40;;;13.70;99.90;;;;;;5031673;28;20429;-59
2023/03/14 09:16:23;;;;;;;4.70;0.60;;;13.70;99.90;;;;;;5048709;28;20420;-59
2023/03/14 09:18:48;;;;;;;4.20;0.40;;;13.20;99.90;;;;;;5049404;28;20390;-57
2023/03/14 09:21:15;;;;;;;4.10;0.33;;;12.90;99.90;;;;;;5050375;28;20393;-56
2023/03/14 09:23:41;;;;;;;4.68;0.52;;;13.00;99.90;;;;;;5049718;28;20393;-59
2023/03/14 09:26:07;;;;;;;4.10;0.30;;;13.00;99.90;;;;;;5049028;28;20941;-57
2023/03/14 09:28:33;;;;;;;4.40;0.30;;;12.50;99.90;;;;;;5049227;28;20410;-56
2023/03/14 09:31:05;;;;;;;4.30;0.35;;;12.30;1.00;;;;;;5048863;28;20512;-57
2023/03/14 09:33:31;;;;;;;4.22;0.40;;;12.10;1.00;;;;;;5049914;28;20389;-57
2023/03/14 09:35:59;;;;;;;4.20;0.40;;;12.20;1.00;;;;;;5047734;28;20456;-57
2023/03/14 09:38:25;;;;;;;4.20;0.40;;;12.20;1.00;;;;;;5049634;28;20385;-57
2023/03/14 09:40:53;;;;;;;4.00;0.30;;;12.30;1.00;;;;;;5048946;28;20392;-57
2023/03/14 09:43:21;;;;;;;6.30;0.50;;;12.20;1.00;;;;;;5049725;28;20373;-57
2023/03/14 09:45:48;;;;;;;4.90;0.30;;;12.20;1.00;;;;;;5048963;28;20424;-57
2023/03/14 09:48:26;;;;;;;5.50;0.70;;;12.00;1.00;;;;;;5049569;28;20838;-57
2023/03/14 09:50:57;;;;;;;4.10;0.40;;;12.20;1.00;;;;;;5049031;28;20431;-57
2023/03/14 09:53:32;;;;;;;4.00;0.30;;;12.50;1.00;;;;;;5049451;28;20377;-56
2023/03/14 09:55:59;;;;;;;4.00;0.22;;;12.70;1.00;;;;;;5048785;28;20384;-56
2023/03/14 09:58:25;;;;;;;4.43;0.30;;;12.60;1.00;;;;;;5052731;28;20389;-56
2023/03/14 10:00:55;;;;;;;4.17;0.20;;;12.60;1.00;;;;;;5052780;28;20397;-57
2023/03/14 10:03:33;;;;;;;4.00;0.30;;;12.70;1.00;;;;;;5053340;28;20389;-56
2023/03/14 10:05:59;;;;;;;4.50;0.30;;;13.10;1.00;;;;;;5052843;28;20378;-56
2023/03/14 10:08:25;;;;;;;4.10;0.30;;;13.60;1.00;;;;;;5053346;28;20858;-56
2023/03/14 10:10:51;;;;;;;4.10;0.25;;;14.40;1.00;;;;;;5053229;28;20412;-56
2023/03/14 10:13:25;;;;;;;4.30;0.30;;;14.80;1.00;;;;;;5052910;28;20797;-56
2023/03/14 10:16:03;;;;;;;4.10;0.30;;;15.10;1.00;;;;;;5052622;28;20792;-57
2023/03/14 10:18:31;;;;;;;4.20;0.30;;;15.20;1.00;;;;;;5053354;28;20422;-58
2023/03/14 10:21:06;;;;;;;4.30;0.30;;;15.70;1.00;;;;;;5052743;28;20865;-57
2023/03/14 10:23:34;;;;;;;4.40;0.40;;;15.90;1.00;;;;;;5052930;28;20480;-56
2023/03/14 10:26:18;;;;;;;4.20;0.30;;;15.40;99.90;;;;;;5034632;28;20428;-56
2023/03/14 10:28:46;;;;;;;4.40;0.40;;;15.40;99.90;;;;;;5053296;28;20427;-56
2023/03/14 10:31:12;;;;;;;4.20;0.38;;;15.20;99.90;;;;;;5053356;28;20427;-58
2023/03/14 10:33:38;;;;;;;4.10;0.30;;;14.20;99.90;;;;;;5052994;28;20377;-58
2023/03/14 10:36:23;;;;;;;7.18;1.63;;;13.70;99.90;;;;;;5052551;28;20385;-59
2023/03/14 10:38:49;;;;;;;4.43;0.40;;;13.50;99.90;;;;;;5053224;28;20388;-61
2023/03/14 10:41:26;;;;;;;4.32;0.60;;;13.40;99.90;;;;;;5052263;28;20381;-56
2023/03/14 10:43:54;;;;;;;4.30;0.30;;;13.30;1.00;;;;;;5052161;28;20397;-57
2023/03/14 10:46:23;;;;;;;4.10;0.30;;;13.90;1.00;;;;;;5052715;28;20439;-56
2023/03/14 10:48:49;;;;;;;4.30;0.60;;;14.50;99.90;;;;;;5051899;28;20404;-60
2023/03/14 10:51:29;;;;;;;4.30;0.40;;;14.60;99.90;;;;;;5052215;28;20429;-58
2023/03/14 10:54:19;;;;;;;4.50;0.43;;;14.40;99.90;;;;;;5052288;28;20846;-58
2023/03/14 10:56:44;;;;;;;4.50;0.40;;;13.70;99.90;;;;;;5052727;28;20377;-58
2023/03/14 10:59:15;;;;;;;5.07;0.90;;;13.20;1.00;;;;;;5051557;28;20381;-58
2023/03/14 11:01:51;;;;;;;5.40;0.60;;;13.00;1.00;;;;;;5052451;28;20460;-59
2023/03/14 11:04:35;;;;;;;4.30;0.50;;;12.80;1.00;;;;;;5052818;28;20378;-56
2023/03/14 11:07:07;;;;;;;4.30;0.60;;;12.40;1.00;;;;;;5051517;28;20472;-56
2023/03/14 11:09:44;;;;;;;3.92;0.22;;;12.40;1.00;;;;;;5050999;28;21078;-56
2023/03/14 11:12:41;;;;;;;4.00;0.30;;;12.20;99.90;;;;;;5051536;28;20382;-56
2023/03/14 11:15:20;;;;;;;4.00;0.20;;;12.10;99.90;;;;;;5051685;28;20660;-60
2023/03/14 11:17:50;;;;;;;4.10;0.30;;;12.00;1.00;;;;;;5052012;28;20704;-56
2023/03/14 11:20:37;;;;;;;4.00;0.30;;;12.10;1.00;;;;;;5052448;28;20410;-56
2023/03/14 11:23:10;;;;;;;3.90;0.30;;;11.90;99.90;;;;;;5051424;28;20382;-55
2023/03/14 11:26:01;;;;;;;5.60;0.50;;;11.70;1.00;;;;;;5052253;28;20827;-56
2023/03/14 11:28:40;;;;;;;3.90;0.40;;;11.80;1.00;;;;;;5051690;28;20447;-56
2023/03/14 11:31:26;;;;;;;4.50;0.50;;;11.70;99.90;;;;;;5051687;28;20460;-57
2023/03/14 11:33:58;;;;;;;3.90;0.30;;;11.50;59.60;;;;;;5050907;28;20793;-57
2023/03/14 11:36:37;;;;;;;6.00;0.50;;;11.40;1.00;;;;;;5051954;28;20389;-56
2023/03/14 11:39:11;;;;;;;3.80;0.30;;;11.60;99.90;;;;;;5051043;28;20389;-56
2023/03/14 11:41:44;;;;;;;3.83;0.30;;;11.60;99.90;;;;;;5051580;28;20396;-56
2023/03/14 11:44:34;;;;;;;3.90;0.30;;;11.60;99.90;;;;;;5050927;28;20416;-56
2023/03/14 11:47:14;;;;;;;4.10;0.40;;;11.80;1.00;;;;;;5051149;28;20389;-56
2023/03/14 11:49:50;;;;;;;3.80;0.20;;;11.80;1.00;;;;;;5051831;28;20397;-56
2023/03/14 11:52:24;;;;;;;4.18;0.40;;;11.80;1.00;;;;;;5051519;28;20386;-56
2023/03/14 11:55:12;;;;;;;3.90;0.30;;;11.90;1.00;;;;;;5051107;28;20420;-59
2023/03/14 11:57:40;;;;;;;3.80;0.20;;;11.80;1.00;;;;;;5051665;28;20393;-56
2023/03/14 12:00:23;;;;;;;3.70;0.20;;;11.60;1.00;;;;;;5050994;28;20389;-56
2023/03/14 12:03:21;;;;;;;3.80;0.30;;;11.50;1.00;;;;;;5050643;28;20382;-60
2023/03/14 12:06:13;;;;;;;3.90;0.30;;;11.30;1.00;;;;;;5051557;28;20439;-56
2023/03/14 12:08:47;;;;;;;3.80;0.30;;;11.20;1.00;;;;;;5051295;28;20858;-55
2023/03/14 12:11:18;;;;;;;4.30;0.30;;;11.10;99.90;;;;;;5050626;28;20512;-55
2023/03/14 12:13:49;;;;;;;3.70;0.20;;;11.20;1.00;;;;;;5051016;28;20396;-55
2023/03/14 12:16:23;;;;;;;4.18;0.40;;;11.20;1.00;;;;;;5051723;28;20457;-56
2023/03/14 12:18:49;;;;;;;3.80;0.20;;;11.30;99.90;;;;;;5051489;28;20395;-60
2023/03/14 12:21:17;;;;;;;3.60;0.20;;;11.20;1.00;;;;;;5050504;28;20389;-55
2023/03/14 12:23:49;;;;;;;3.70;0.20;;;11.20;1.00;;;;;;5051086;28;20397;-57
2023/03/14 12:26:27;;;;;;;3.70;0.20;;;11.30;99.90;;;;;;5051110;28;20412;-56
2023/03/14 12:29:08;;;;;;;3.80;0.30;;;11.00;1.00;;;;;;5049976;28;20432;-59
2023/03/14 12:32:00;;;;;;;4.07;0.30;;;10.70;99.90;;;;;;5050756;28;20867;-56
2023/03/14 12:34:31;;;;;;;4.28;0.60;;;10.40;1.00;;;;;;5047742;28;20962;-55
2023/03/14 12:37:25;;;;;;;3.80;0.22;;;10.30;99.90;;;;;;5050434;28;20417;-58
2023/03/14 12:40:14;;;;;;;4.00;0.40;;;9.90;1.00;;;;;;5050335;28;20858;-61
2023/03/14 12:42:45;;;;;;;4.20;0.40;;;9.50;1.00;;;;;;5050563;28;20378;-57
2023/03/14 12:45:36;;;;;;;4.50;0.60;;;9.30;1.00;;;;;;5032058;28;21069;-58
2023/03/14 12:48:20;;;;;;;4.30;0.63;;;9.30;99.90;;;;;;5049660;28;20405;-58
2023/03/14 12:51:02;;;;;;;5.20;0.50;;;9.20;97.90;;;;;;5050317;28;20451;-57
2023/03/14 12:54:05;;;;;;;5.60;0.77;;;9.20;1.00;;;;;;5050631;28;20385;-58
2023/03/14 12:57:14;;;;;;;4.40;0.43;;;9.80;1.00;;;;;;5050381;28;20378;-58
2023/03/14 12:59:50;;;;;;;4.45;0.38;;;10.40;1.00;;;;;;5049792;28;20486;-57
2023/03/14 13:02:27;;;;;;;7.80;1.00;;;10.40;1.00;;;;;;5032531;28;20385;-57